Time;durP1;ratioP1;P1;durP2;ratioP2;P2;SDS_P1;SDS_P2;PMS_P1;PMS_P2;Temp;Humidity;BMP_temperature;BMP_pressure;BME280_temperature;BME280_humidity;BME280_pressure;Samples;Min_cycle;Max_cycle;Signal;HPM_P1;HPM_P2
2022/11/07 00:02:05;;;;;;;18.77;5.95;;;;;;;16.43;68.03;101119.94;5093163;28;20407;-76
2022/11/07 00:04:31;;;;;;;20.65;8.30;;;;;;;16.38;68.27;101116.84;5101691;28;20043;-77
2022/11/07 00:06:57;;;;;;;26.52;6.22;;;;;;;16.38;68.48;101122.28;5098099;28;20110;-77
2022/11/07 00:09:23;;;;;;;27.55;7.03;;;;;;;16.43;68.37;101119.94;5107715;28;20134;-76
2022/11/07 00:11:48;;;;;;;24.75;6.15;;;;;;;16.37;68.61;101109.69;5109973;28;20038;-77
2022/11/07 00:14:16;;;;;;;19.95;7.03;;;;;;;16.39;68.57;101118.56;5106001;28;20043;-78
2022/11/07 00:16:42;;;;;;;23.05;7.35;;;;;;;16.43;68.39;101114.53;5090446;28;20036;-78
2022/11/07 00:19:09;;;;;;;28.42;6.82;;;;;;;16.34;68.78;101122.56;5097383;28;20452;-76
2022/11/07 00:21:34;;;;;;;20.35;7.25;;;;;;;16.31;68.77;101127.44;5107184;28;20036;-76
2022/11/07 00:24:00;;;;;;;26.02;7.07;;;;;;;16.39;68.30;101124.81;5074903;28;20054;-77
2022/11/07 00:26:26;;;;;;;19.58;6.65;;;;;;;16.30;68.85;101115.72;5092709;28;20494;-78
2022/11/07 00:28:51;;;;;;;43.53;8.43;;;;;;;16.34;68.45;101122.56;5092981;28;20140;-78
2022/11/07 00:31:17;;;;;;;18.90;7.28;;;;;;;16.33;68.76;101120.84;5092962;28;20034;-78
2022/11/07 00:33:44;;;;;;;29.15;6.90;;;;;;;16.36;68.77;101124.28;5093784;28;20044;-77
2022/11/07 00:36:26;;;;;;;26.40;7.82;;;;;;;16.37;68.58;101126.84;5103583;28;20020;-77
2022/11/07 00:38:52;;;;;;;22.13;8.57;;;;;;;16.29;68.94;101124.88;5093389;28;20111;-77
2022/11/07 00:41:18;;;;;;;24.75;6.68;;;;;;;16.24;69.21;101129.91;5089968;28;20024;-78
2022/11/07 00:43:44;;;;;;;37.05;7.65;;;;;;;16.27;68.82;101126.88;5087258;28;20038;-77
2022/11/07 00:46:12;;;;;;;28.27;7.82;;;;;;;16.31;68.80;101122.88;5112871;28;20027;-78
2022/11/07 00:48:37;;;;;;;17.45;7.53;;;;;;;16.39;68.76;101129.41;5107905;28;20024;-77
2022/11/07 00:51:11;;;;;;;17.25;6.78;;;;;;;16.43;67.75;101128.97;5092877;28;20388;-77
2022/11/07 00:53:36;;;;;;;17.10;5.97;;;;;;;16.36;68.02;101132.44;5098009;28;20024;-76
2022/11/07 00:56:04;;;;;;;26.13;7.38;;;;;;;16.30;68.12;101132.00;5100161;28;20168;-77
2022/11/07 00:58:30;;;;;;;27.92;8.23;;;;;;;16.31;68.13;101127.44;5106823;28;20031;-79
2022/11/07 01:00:56;;;;;;;24.75;8.30;;;;;;;16.26;67.58;101125.19;5106928;28;20040;-77
2022/11/07 01:06:06;;;;;;;33.08;7.88;;;;;;;16.35;67.71;101131.56;5107913;28;20047;-79
2022/11/07 01:08:31;;;;;;;20.83;6.88;;;;;;;16.28;67.55;101131.31;5092374;28;20020;-77
2022/11/07 01:10:58;;;;;;;18.80;7.97;;;;;;;16.20;67.73;101124.94;5094697;28;20107;-77
2022/11/07 01:13:24;;;;;;;31.02;7.47;;;;;;;16.32;66.79;101123.72;5113382;28;20524;-77
2022/11/07 01:15:50;;;;;;;17.70;6.95;;;;;;;16.14;66.95;101104.69;5096692;28;20043;-78
2022/11/07 01:18:15;;;;;;;19.63;6.95;;;;;;;16.21;67.24;101130.19;5094828;28;20024;-76
2022/11/07 01:20:41;;;;;;;25.30;7.05;;;;;;;16.22;67.16;101126.47;5091918;28;20051;-77
2022/11/07 01:23:08;;;;;;;30.30;6.90;;;;;;;16.23;67.12;101130.91;5092869;28;20056;-78
2022/11/07 01:25:36;;;;;;;19.08;7.32;;;;;;;16.26;67.66;101125.19;5092093;28;20045;-77
2022/11/07 01:28:02;;;;;;;28.45;8.52;;;;;;;15.90;67.53;101060.91;5105696;28;20023;-77
2022/11/07 01:30:28;;;;;;;19.42;7.28;;;;;;;16.38;67.18;101125.00;5093841;28;20031;-78
2022/11/07 01:32:53;;;;;;;22.20;6.85;;;;;;;16.20;67.49;101112.22;5092303;28;20028;-77
2022/11/07 01:35:19;;;;;;;21.73;6.53;;;;;;;16.24;66.95;101134.47;5090583;28;20044;-77
2022/11/07 01:37:44;;;;;;;12.73;5.43;;;;;;;16.03;66.81;101096.69;5091758;28;20024;-77
2022/11/07 01:40:10;;;;;;;17.15;6.15;;;;;;;16.19;67.23;101124.06;5080929;28;20085;-77
2022/11/07 01:42:35;;;;;;;18.35;6.22;;;;;;;16.00;67.03;101086.13;5091668;28;20223;-78
2022/11/07 01:45:01;;;;;;;22.15;6.35;;;;;;;16.29;66.82;101134.88;5091312;28;20089;-77
2022/11/07 01:47:33;;;;;;;17.80;6.82;;;;;;;16.29;66.62;101134.88;5091642;28;20031;-78
2022/11/07 01:49:59;;;;;;;;;;;;;;;16.23;66.58;101124.63;5091388;28;20112;-77
2022/11/07 01:52:36;;;;;;;18.30;6.15;;;;;;;16.21;66.54;101122.06;5091194;28;20002;-77
2022/11/07 01:55:04;;;;;;;20.02;7.22;;;;;;;16.16;66.59;101113.50;5090901;28;20514;-77
2022/11/07 01:57:35;;;;;;;22.10;6.63;;;;;;;16.18;66.81;101122.34;5091315;28;20031;-77
2022/11/07 02:00:03;;;;;;;17.23;6.35;;;;;;;16.24;66.29;101129.91;5106204;28;20047;-78
2022/11/07 02:02:30;;;;;;;18.63;6.28;;;;;;;16.31;66.23;101130.16;5092345;28;20030;-77
2022/11/07 02:04:58;;;;;;;24.40;6.82;;;;;;;16.36;65.86;101133.25;5038862;28;20043;-76
2022/11/07 02:07:24;;;;;;;22.08;6.43;;;;;;;16.33;66.11;101131.72;5091960;28;20027;-77
2022/11/07 02:09:51;;;;;;;19.05;7.85;;;;;;;16.33;66.50;101133.56;5121002;28;20454;-76
2022/11/07 02:12:17;;;;;;;22.50;6.68;;;;;;;16.41;66.21;101135.53;5121982;28;20032;-77
2022/11/07 02:14:43;;;;;;;21.25;7.32;;;;;;;16.39;66.41;101121.28;5120709;28;20024;-77
2022/11/07 02:17:10;;;;;;;17.65;7.10;;;;;;;16.44;66.09;101127.09;5109654;28;20529;-77
2022/11/07 02:19:40;;;;;;;20.65;6.60;;;;;;;16.34;65.80;101133.44;5079326;28;20403;-77
2022/11/07 02:22:39;;;;;;;19.73;7.07;;;;;;;16.34;65.48;101130.72;5090538;28;20028;-77
2022/11/07 02:25:12;;;;;;;19.65;6.55;;;;;;;16.12;66.25;101133.78;5090661;28;20024;-77
2022/11/07 02:27:38;;;;;;;;;;;;;;;16.21;66.40;101130.19;5109738;28;21170;-76
2022/11/07 02:30:12;;;;;;;16.70;6.13;;;;;;;16.11;66.34;101123.97;5110832;28;19938;-77
2022/11/07 02:32:37;;;;;;;14.52;6.82;;;;;;;16.22;66.11;101134.63;5108159;28;20439;-78
2022/11/07 02:35:06;;;;;;;21.75;7.55;;;;;;;16.28;65.89;101134.03;5092034;28;20056;-76
2022/11/07 02:37:37;;;;;;;21.02;6.78;;;;;;;16.32;65.68;101146.31;5109106;28;20037;-78
2022/11/07 02:40:08;;;;;;;15.98;6.65;;;;;;;16.44;65.64;101137.97;5073850;28;20039;-78
2022/11/07 02:42:42;;;;;;;25.10;6.75;;;;;;;16.50;65.66;101135.50;5096331;28;20442;-76
2022/11/07 02:45:17;;;;;;;19.83;6.60;;;;;;;16.56;65.64;101134.06;5091056;28;20459;-77
2022/11/07 02:47:43;;;;;;;25.33;7.28;;;;;;;16.62;65.29;101133.47;5105413;28;20120;-76
2022/11/07 02:50:11;;;;;;;17.55;6.43;;;;;;;16.51;65.35;101134.47;5090337;28;20036;-77
2022/11/07 02:52:37;;;;;;;25.95;7.68;;;;;;;16.56;65.53;101137.66;5090406;28;20019;-77
2022/11/07 02:55:04;;;;;;;19.30;7.43;;;;;;;16.59;65.06;101131.91;5089779;28;20455;-77
2022/11/07 02:57:29;;;;;;;26.92;7.25;;;;;;;16.58;65.21;101135.63;5102197;28;20054;-77
2022/11/07 02:59:56;;;;;;;22.83;7.53;;;;;;;16.64;65.20;101142.31;5096812;28;20495;-77
2022/11/07 03:02:22;;;;;;;21.55;7.03;;;;;;;16.62;65.20;101147.03;5089287;28;20043;-78
2022/11/07 03:04:47;;;;;;;17.27;6.40;;;;;;;16.62;65.42;101145.19;5102559;28;20036;-77
2022/11/07 03:07:13;;;;;;;17.63;7.13;;;;;;;16.60;65.38;101143.63;5068871;28;20044;-76
2022/11/07 03:09:38;;;;;;;27.23;7.38;;;;;;;16.55;65.10;101135.06;5069257;28;20032;-78
2022/11/07 03:12:04;;;;;;;24.60;7.22;;;;;;;16.55;65.36;101140.50;5088623;28;20116;-76
2022/11/07 03:14:29;;;;;;;35.28;7.07;;;;;;;16.51;65.57;101139.91;5102379;28;20612;-77
2022/11/07 03:16:54;;;;;;;33.28;7.07;;;;;;;16.53;65.52;101137.91;5090728;28;20467;-77
2022/11/07 03:19:20;;;;;;;18.42;6.18;;;;;;;16.54;65.19;101134.25;5110467;28;20016;-78
2022/11/07 03:21:45;;;;;;;18.75;7.70;;;;;;;16.59;65.33;101147.34;5127811;28;20038;-77
2022/11/07 03:24:11;;;;;;;17.70;7.82;;;;;;;16.50;65.29;101148.22;5089864;28;20021;-78
2022/11/07 03:26:36;;;;;;;24.92;7.40;;;;;;;16.43;65.27;101139.81;5086454;28;20088;-77
2022/11/07 03:29:01;;;;;;;21.70;6.38;;;;;;;16.31;65.25;101120.16;5089411;28;20471;-77
2022/11/07 03:31:27;;;;;;;22.73;7.90;;;;;;;16.42;65.33;101153.56;5089476;28;20760;-77
2022/11/07 03:33:52;;;;;;;22.63;7.07;;;;;;;16.26;65.51;101117.06;5088920;28;20052;-77
2022/11/07 03:36:18;;;;;;;17.98;7.78;;;;;;;16.48;65.35;101161.09;5089080;28;20407;-77
2022/11/07 03:38:43;;;;;;;21.02;7.60;;;;;;;16.35;65.27;101139.72;5089130;28;20467;-76
2022/11/07 03:41:08;;;;;;;26.50;7.88;;;;;;;16.51;65.10;101152.66;5089209;28;20031;-76
2022/11/07 03:43:34;;;;;;;15.38;7.43;;;;;;;16.51;65.15;101149.94;5088941;28;20043;-77
2022/11/07 03:45:59;;;;;;;35.13;7.63;;;;;;;16.52;65.41;101157.06;5088755;28;20074;-77
2022/11/07 03:48:25;;;;;;;17.80;8.27;;;;;;;16.57;65.01;101149.38;5088049;28;20131;-76
2022/11/07 03:50:50;;;;;;;27.20;7.95;;;;;;;16.52;65.27;101148.91;5089432;28;20050;-79
2022/11/07 03:53:16;;;;;;;20.65;8.10;;;;;;;16.43;65.74;101153.41;5089445;28;20039;-75
2022/11/07 03:55:42;;;;;;;20.48;7.07;;;;;;;16.50;65.81;101149.09;5088743;28;20035;-77
2022/11/07 03:58:07;;;;;;;29.70;7.88;;;;;;;16.52;65.47;101146.19;5069325;28;20040;-78
2022/11/07 04:00:33;;;;;;;20.02;7.22;;;;;;;16.52;65.36;101151.63;5089192;28;20024;-76
2022/11/07 04:02:58;;;;;;;19.60;8.70;;;;;;;16.44;65.51;101127.97;5083555;28;20029;-78
2022/11/07 04:05:23;;;;;;;16.02;7.10;;;;;;;16.59;65.35;101148.22;5090114;28;20522;-77
2022/11/07 04:07:49;;;;;;;17.10;7.38;;;;;;;16.60;65.14;101155.38;5096175;28;20035;-76
2022/11/07 04:10:14;;;;;;;20.15;8.27;;;;;;;16.39;65.17;101126.72;5109231;28;20020;-77
2022/11/07 04:18:08;;;;;;;23.77;8.55;;;;;;;16.16;66.36;101124.38;5103903;28;20038;-77
2022/11/07 04:20:33;;;;;;;22.73;7.88;;;;;;;16.40;66.17;101152.84;5109751;28;20023;-76
2022/11/07 04:22:59;;;;;;;26.10;10.15;;;;;;;16.34;66.26;101155.16;5107918;28;20093;-76
2022/11/07 04:28:08;;;;;;;28.27;8.52;;;;;;;16.32;66.23;101151.75;5089472;28;20462;-77
2022/11/07 04:30:33;;;;;;;16.38;8.10;;;;;;;16.31;65.80;101143.72;5095876;28;20106;-77
2022/11/07 04:33:00;;;;;;;28.48;8.70;;;;;;;16.31;65.88;101149.16;5113245;28;20043;-76
2022/11/07 04:35:29;;;;;;;70.93;12.30;;;;;;;16.24;65.97;101143.47;5088367;28;20539;-77
2022/11/07 04:37:55;;;;;;;17.38;8.00;;;;;;;16.36;65.99;101146.00;5086602;28;20110;-78
2022/11/07 04:40:21;;;;;;;22.73;8.30;;;;;;;16.37;65.83;101148.56;5073592;28;20491;-77
2022/11/07 04:42:47;;;;;;;28.05;11.20;;;;;;;16.24;65.94;101121.75;5089658;28;20402;-76
2022/11/07 04:45:13;;;;;;;21.52;9.52;;;;;;;16.27;65.78;101142.31;5098160;28;20043;-76
2022/11/07 04:47:39;;;;;;;25.40;10.02;;;;;;;16.26;66.45;101148.75;5088582;28;20203;-76
2022/11/07 04:50:10;;;;;;;25.90;10.15;;;;;;;16.31;66.22;101154.59;5088340;28;20466;-78
2022/11/07 04:52:35;;;;;;;39.17;9.07;;;;;;;16.22;66.64;101152.75;5093502;28;20019;-75
2022/11/07 04:55:01;;;;;;;38.70;11.95;;;;;;;16.31;66.54;101147.31;5108434;28;20041;-76
2022/11/07 04:57:26;;;;;;;71.63;11.43;;;;;;;16.38;66.35;101153.00;5106063;28;20020;-77
2022/11/07 04:59:52;;;;;;;91.70;14.32;;;;;;;16.41;66.39;101154.56;5103926;28;20048;-78
2022/11/07 05:02:17;;;;;;;26.65;10.82;;;;;;;16.41;66.74;101152.69;5108356;28;20032;-77
2022/11/07 05:04:42;;;;;;;32.63;10.80;;;;;;;16.47;66.53;101154.81;5109703;28;20409;-76
2022/11/07 05:07:08;;;;;;;77.45;12.63;;;;;;;16.36;66.36;101121.56;5107998;28;20429;-75
2022/11/07 05:09:35;;;;;;;41.72;9.40;;;;;;;16.40;66.36;101131.13;5108913;28;20032;-76
2022/11/07 05:12:01;;;;;;;35.33;9.02;;;;;;;16.56;66.54;101163.94;5100956;28;20024;-76
2022/11/07 05:14:27;;;;;;;44.88;11.85;;;;;;;16.61;66.45;101167.91;5091356;28;20162;-76
2022/11/07 05:16:53;;;;;;;110.68;15.02;;;;;;;16.57;66.50;101160.25;5096724;28;20099;-76
2022/11/07 05:19:20;;;;;;;61.38;9.60;;;;;;;16.61;66.62;101151.63;5112578;28;20083;-76
2022/11/07 05:21:46;;;;;;;60.40;11.05;;;;;;;16.55;66.98;101157.66;5110432;28;20062;-77
2022/11/07 05:24:12;;;;;;;40.92;10.73;;;;;;;16.53;67.27;101164.22;5091722;28;20024;-75
2022/11/07 05:26:39;;;;;;;22.30;9.60;;;;;;;16.43;67.58;101138.97;5095778;28;20153;-77
2022/11/07 05:29:07;;;;;;;76.38;13.18;;;;;;;16.63;67.47;101175.94;5087633;28;20025;-76
2022/11/07 05:31:33;;;;;;;87.68;12.63;;;;;;;16.48;67.25;101152.97;5071279;28;20104;-76
2022/11/07 05:33:58;;;;;;;67.97;14.30;;;;;;;16.66;67.34;101187.34;5090898;28;20566;-76
2022/11/07 05:36:24;;;;;;;53.67;11.50;;;;;;;16.57;67.78;101176.53;5091323;28;20036;-76
2022/11/07 05:38:52;;;;;;;47.72;11.18;;;;;;;16.56;67.91;101189.25;5091933;28;20490;-77
2022/11/07 05:41:19;;;;;;;36.78;9.02;;;;;;;16.30;67.82;101158.28;5099470;28;20471;-78
2022/11/07 05:43:45;;;;;;;36.78;11.05;;;;;;;16.29;68.38;101168.31;5089781;28;20046;-77
2022/11/07 05:46:11;;;;;;;107.85;15.52;;;;;;;16.28;68.76;101184.75;5102776;28;20035;-77
2022/11/07 05:48:37;;;;;;;55.28;10.38;;;;;;;16.31;69.06;101190.75;5092168;28;20032;-78
2022/11/07 05:51:05;;;;;;;166.90;15.68;;;;;;;16.14;69.37;101175.22;5089693;28;20040;-76
2022/11/07 05:53:31;;;;;;;93.82;16.52;;;;;;;16.29;69.61;101200.91;5091390;28;20028;-77
2022/11/07 05:55:56;;;;;;;114.40;15.00;;;;;;;16.21;69.32;101191.75;5090774;28;20093;-76
2022/11/07 05:58:22;;;;;;;40.13;10.15;;;;;;;16.11;70.17;101190.94;5091686;28;20026;-80
2022/11/07 06:00:48;;;;;;;176.18;19.13;;;;;;;16.18;70.41;101209.19;5101704;28;20111;-75
2022/11/07 06:03:13;;;;;;;89.65;15.77;;;;;;;16.15;70.58;101209.50;5063218;28;20503;-75
2022/11/07 06:05:40;;;;;;;117.95;15.18;;;;;;;16.16;71.15;101213.06;5073682;28;20035;-76
2022/11/07 06:08:08;;;;;;;123.47;16.13;;;;;;;16.23;71.26;101216.91;5082008;28;20139;-75
2022/11/07 06:10:38;;;;;;;68.97;11.52;;;;;;;16.13;71.19;101197.94;5090872;28;20592;-75
2022/11/07 06:13:06;;;;;;;60.17;12.10;;;;;;;16.08;71.26;101197.53;5098126;28;20055;-74
2022/11/07 06:15:33;;;;;;;44.40;13.82;;;;;;;16.09;71.55;101199.22;5099807;28;20082;-75
2022/11/07 06:18:03;;;;;;;64.15;10.95;;;;;;;16.21;71.91;101225.19;5090360;28;20032;-75
2022/11/07 06:20:28;;;;;;;94.70;11.48;;;;;;;16.19;71.93;101212.78;5090652;28;20028;-75
2022/11/07 06:23:02;;;;;;;104.22;13.02;;;;;;;16.22;72.11;101228.75;5064595;28;20522;-75
2022/11/07 06:25:29;;;;;;;205.10;20.95;;;;;;;16.23;71.87;101233.19;5111193;28;20032;-76
2022/11/07 06:28:14;;;;;;;37.75;10.82;;;;;;;16.23;72.37;101225.91;5109861;28;20084;-77
2022/11/07 06:30:40;;;;;;;39.50;10.85;;;;;;;16.20;72.13;101218.06;5110087;28;20052;-77
2022/11/07 06:33:09;;;;;;;49.38;10.05;;;;;;;16.16;72.25;101222.06;5109905;28;20430;-77
2022/11/07 06:35:34;;;;;;;29.58;8.35;;;;;;;16.05;72.06;101205.09;5098753;28;20090;-75
2022/11/07 06:38:02;;;;;;;21.70;9.40;;;;;;;15.99;72.07;101198.38;5080632;28;20032;-75
2022/11/07 06:40:28;;;;;;;83.18;12.18;;;;;;;16.06;72.25;101204.09;5072460;28;20057;-75
2022/11/07 06:42:53;;;;;;;72.47;12.25;;;;;;;16.06;72.24;101199.50;5092333;28;20032;-81
2022/11/07 06:45:18;;;;;;;70.75;11.65;;;;;;;16.23;71.72;101231.34;5089299;28;20487;-77
2022/11/07 06:47:44;;;;;;;51.25;12.68;;;;;;;16.33;71.78;101239.44;5092808;28;20085;-78
2022/11/07 06:50:09;;;;;;;33.70;11.98;;;;;;;16.41;70.95;101241.44;5096490;28;20028;-76
2022/11/07 06:52:35;;;;;;;37.63;10.55;;;;;;;16.39;70.61;101240.75;5099324;28;20050;-75
2022/11/07 06:55:00;;;;;;;60.25;11.55;;;;;;;16.36;70.40;101238.31;5112306;28;20035;-76
2022/11/07 06:57:26;;;;;;;175.15;21.85;;;;;;;16.43;70.32;101233.97;5114991;28;20045;-75
2022/11/07 06:59:51;;;;;;;69.85;12.77;;;;;;;16.51;69.94;101242.28;5093805;28;20032;-75
2022/11/07 07:02:16;;;;;;;35.65;11.57;;;;;;;16.49;69.38;101245.13;5089770;28;20038;-76
2022/11/07 07:04:42;;;;;;;54.92;11.32;;;;;;;16.50;68.99;101245.97;5082508;28;20110;-77
2022/11/07 07:07:07;;;;;;;36.83;7.90;;;;;;;16.39;69.02;101222.56;5090177;28;20036;-76
2022/11/07 07:09:33;;;;;;;80.53;9.65;;;;;;;16.47;68.41;101240.84;5105007;28;20054;-76
2022/11/07 07:11:58;;;;;;;88.85;10.68;;;;;;;16.29;67.70;101230.75;5096970;28;20474;-76
2022/11/07 07:14:24;;;;;;;37.72;8.30;;;;;;;16.17;67.02;101210.22;5069619;28;20047;-77
2022/11/07 07:16:49;;;;;;;82.60;10.52;;;;;;;16.38;66.45;101247.16;5081871;28;20048;-75
2022/11/07 07:19:14;;;;;;;70.55;10.10;;;;;;;16.36;66.41;101254.59;5109507;28;20020;-75
2022/11/07 07:21:40;;;;;;;169.27;15.10;;;;;;;16.26;65.77;101228.34;5098264;28;20032;-75
2022/11/07 07:24:06;;;;;;;20.40;6.88;;;;;;;16.27;65.29;101230.03;5054135;28;20485;-75
2022/11/07 07:26:31;;;;;;;30.55;8.43;;;;;;;16.45;65.28;101243.69;5101238;28;20032;-79
2022/11/07 07:28:56;;;;;;;30.98;7.85;;;;;;;16.50;65.30;101249.56;5089264;28;20020;-77
2022/11/07 07:31:25;;;;;;;26.17;6.28;;;;;;;16.60;64.70;101246.84;5090100;28;20491;-78
2022/11/07 07:33:51;;;;;;;90.88;13.65;;;;;;;16.48;64.29;101226.28;5088651;28;20067;-77
2022/11/07 07:36:17;;;;;;;49.50;8.43;;;;;;;16.52;64.09;101238.53;5070550;28;20032;-77
2022/11/07 07:38:43;;;;;;;126.95;12.30;;;;;;;16.51;64.36;101253.13;5089319;28;20040;-77
2022/11/07 07:41:09;;;;;;;281.40;22.10;;;;;;;16.53;63.89;101242.97;5074572;28;20483;-77
2022/11/07 07:43:34;;;;;;;188.50;20.95;;;;;;;16.61;63.55;101238.53;5068041;28;20101;-76
2022/11/07 07:46:02;;;;;;;69.45;9.68;;;;;;;16.67;62.99;101248.81;5068457;28;20118;-76
2022/11/07 07:48:27;;;;;;;20.98;6.13;;;;;;;16.79;62.92;101252.19;5072131;28;20028;-77
2022/11/07 07:50:53;;;;;;;24.45;7.07;;;;;;;16.73;62.62;101231.03;5092302;28;20475;-78
2022/11/07 07:53:19;;;;;;;54.80;9.60;;;;;;;16.93;62.22;101254.41;5084799;28;20510;-77
2022/11/07 07:55:45;;;;;;;31.65;8.57;;;;;;;16.92;61.81;101239.13;5085233;28;20042;-78
2022/11/07 07:58:11;;;;;;;43.72;10.05;;;;;;;16.84;61.62;101217.28;5088691;28;20032;-76
2022/11/07 08:00:37;;;;;;;23.05;7.57;;;;;;;17.02;60.85;101244.50;5091316;28;20042;-77
2022/11/07 08:03:05;;;;;;;15.70;6.93;;;;;;;17.06;60.80;101252.22;5095419;28;20111;-76
2022/11/07 08:05:31;;;;;;;22.15;7.82;;;;;;;17.09;60.31;101248.34;5081211;28;20035;-76
2022/11/07 08:07:56;;;;;;;46.70;9.23;;;;;;;17.14;60.36;101252.31;5084995;28;20032;-75
2022/11/07 08:10:22;;;;;;;45.53;8.05;;;;;;;17.22;59.74;101260.53;5086770;28;20502;-75
2022/11/07 08:12:50;;;;;;;46.13;9.30;;;;;;;17.32;59.88;101255.06;5088295;28;20032;-76
2022/11/07 08:15:17;;;;;;;280.67;23.92;;;;;;;17.36;59.46;101251.03;5088262;28;20126;-75
2022/11/07 08:17:43;;;;;;;204.65;18.85;;;;;;;17.42;59.53;101254.00;5072537;28;20067;-76
2022/11/07 08:20:10;;;;;;;330.67;28.80;;;;;;;17.56;59.45;101262.63;5068874;28;20048;-79
2022/11/07 08:22:36;;;;;;;110.47;12.98;;;;;;;17.69;58.64;101258.53;5067645;28;20029;-76
2022/11/07 08:25:03;;;;;;;104.85;9.52;;;;;;;17.78;57.81;101262.19;5067846;28;20029;-77
2022/11/07 08:27:29;;;;;;;171.75;13.68;;;;;;;17.79;57.38;101261.19;5068255;28;20039;-75
2022/11/07 08:29:54;;;;;;;42.72;7.18;;;;;;;17.81;57.32;101257.28;5068122;28;20388;-76
2022/11/07 08:32:20;;;;;;;18.52;5.82;;;;;;;17.82;56.88;101261.75;5068854;28;20086;-76
2022/11/07 08:34:45;;;;;;;62.42;8.68;;;;;;;17.65;56.54;101229.94;5068701;28;20059;-75
2022/11/07 08:37:11;;;;;;;23.55;4.95;;;;;;;17.74;56.94;101260.78;5051174;28;20077;-76
2022/11/07 08:39:36;;;;;;;41.00;8.68;;;;;;;17.77;57.35;101255.88;5067972;28;20025;-76
2022/11/07 08:42:01;;;;;;;32.05;6.78;;;;;;;17.81;56.75;101257.28;5068620;28;20029;-77
2022/11/07 08:44:27;;;;;;;46.08;8.43;;;;;;;17.89;56.11;101264.66;5069469;28;20505;-76
2022/11/07 08:46:52;;;;;;;46.92;9.05;;;;;;;17.93;55.83;101260.63;5072377;28;20498;-76
2022/11/07 08:49:18;;;;;;;34.47;7.00;;;;;;;18.03;55.72;101258.69;5072389;28;20074;-76
2022/11/07 08:51:43;;;;;;;36.05;11.57;;;;;;;18.06;55.09;101250.19;5072598;28;20120;-76
2022/11/07 08:54:10;;;;;;;34.35;8.10;;;;;;;18.11;54.45;101246.97;5074077;28;20647;-77
2022/11/07 08:56:36;;;;;;;29.27;6.65;;;;;;;18.10;54.26;101262.50;5072996;28;20043;-76
2022/11/07 08:59:01;;;;;;;27.88;6.22;;;;;;;18.14;53.87;101258.41;5072562;28;20021;-76
2022/11/07 09:01:27;;;;;;;33.22;6.95;;;;;;;18.17;54.03;101263.53;5087811;28;20467;-76
2022/11/07 09:03:52;;;;;;;393.15;27.17;;;;;;;17.85;54.00;101193.38;5093011;28;20024;-78
2022/11/07 09:06:17;;;;;;;75.20;8.68;;;;;;;18.29;53.38;101262.28;5092150;28;20475;-77
2022/11/07 09:08:43;;;;;;;58.75;8.55;;;;;;;18.06;53.15;101247.47;5092298;28;20035;-77
2022/11/07 09:11:09;;;;;;;26.92;8.00;;;;;;;18.23;53.16;101257.47;5095744;28;20519;-76
2022/11/07 09:13:34;;;;;;;15.63;5.72;;;;;;;18.32;53.13;101272.84;5103810;28;20034;-76
2022/11/07 09:16:02;;;;;;;193.23;15.85;;;;;;;18.28;52.81;101246.13;5104353;28;20032;-76
2022/11/07 09:18:28;;;;;;;31.83;7.25;;;;;;;18.35;52.78;101255.34;5094316;28;20027;-77
2022/11/07 09:20:54;;;;;;;28.02;6.82;;;;;;;18.05;52.66;101258.50;5091444;28;20111;-76
2022/11/07 09:23:19;;;;;;;16.20;6.22;;;;;;;18.20;52.87;101271.41;5092705;28;20520;-76
2022/11/07 09:25:45;;;;;;;20.92;6.18;;;;;;;18.22;52.89;101272.13;5091971;28;20051;-77
2022/11/07 09:28:11;;;;;;;53.22;8.48;;;;;;;18.29;52.89;101277.75;5091927;28;20176;-76
2022/11/07 09:30:36;;;;;;;45.55;6.28;;;;;;;18.21;52.63;101274.97;5055777;28;20172;-78
2022/11/07 09:33:02;;;;;;;273.92;20.65;;;;;;;18.04;52.58;101252.19;5091854;28;20483;-75
2022/11/07 09:35:27;;;;;;;42.30;7.43;;;;;;;18.17;52.45;101262.69;5091197;28;20422;-76
2022/11/07 09:37:53;;;;;;;84.80;9.77;;;;;;;18.32;51.98;101278.31;5091431;28;20074;-76
2022/11/07 09:40:18;;;;;;;342.75;24.38;;;;;;;18.27;52.24;101268.91;5072937;28;20043;-78
2022/11/07 09:43:02;;;;;;;39.10;5.65;;;;;;;18.23;52.29;101271.09;5091289;28;20027;-76
2022/11/07 09:45:29;;;;;;;71.28;8.98;;;;;;;18.43;52.14;101269.03;5091648;28;20137;-77
2022/11/07 09:48:02;;;;;;;42.85;7.93;;;;;;;18.42;51.17;101276.34;5088269;28;20033;-76
2022/11/07 09:50:34;;;;;;;;;;;;;;;18.33;51.23;101268.25;5070962;28;20440;-76
2022/11/07 09:53:08;;;;;;;32.75;5.60;;;;;;;18.31;51.18;101254.81;5070896;28;19912;-76
2022/11/07 09:55:45;;;;;;;21.10;6.05;;;;;;;18.45;51.38;101262.41;5069460;28;20025;-77
2022/11/07 09:58:38;;;;;;;369.17;27.00;;;;;;;18.44;50.80;101236.16;5070815;28;20043;-77
2022/11/07 10:01:09;;;;;;;201.18;17.42;;;;;;;18.75;50.89;101254.75;5021022;28;20065;-77
2022/11/07 10:03:37;;;;;;;41.17;6.45;;;;;;;18.87;50.13;101254.31;5028596;28;20045;-77
2022/11/07 10:06:14;;;;;;;30.42;7.10;;;;;;;18.95;50.07;101248.91;5028278;28;20037;-77
2022/11/07 10:09:18;;;;;;;82.70;11.05;;;;;;;19.20;49.16;101255.31;5011483;28;20095;-73
2022/11/07 10:11:59;;;;;;;95.90;12.30;;;;;;;19.27;48.54;101256.34;5027979;28;20124;-76
2022/11/07 10:14:33;;;;;;;495.13;42.08;;;;;;;19.32;48.27;101254.00;5028428;28;20033;-73
2022/11/07 10:17:37;;;;;;;103.65;10.23;;;;;;;19.34;48.48;101248.38;5027566;28;20099;-74
2022/11/07 10:20:20;;;;;;;82.28;8.15;;;;;;;19.39;47.99;101249.59;5028241;28;20076;-72
2022/11/07 10:23:08;;;;;;;65.82;8.10;;;;;;;19.40;47.86;101259.50;5033701;28;20030;-75
2022/11/07 10:25:46;;;;;;;53.03;6.78;;;;;;;19.23;48.25;101224.13;5040438;28;20635;-76
2022/11/07 10:28:13;;;;;;;30.92;6.35;;;;;;;19.37;48.18;101246.16;5034071;28;20025;-78
2022/11/07 10:30:45;;;;;;;51.38;16.85;;;;;;;19.40;47.84;101232.22;5030577;28;20362;-77
2022/11/07 10:33:22;;;;;;;72.97;9.75;;;;;;;19.65;47.91;101226.81;5029278;28;20086;-77
2022/11/07 10:36:23;;;;;;;59.30;6.25;;;;;;;19.80;47.10;101219.66;5028265;28;20149;-75
2022/11/07 10:38:50;;;;;;;43.28;5.85;;;;;;;19.89;46.56;101215.91;5003631;28;20076;-74
2022/11/07 10:41:30;;;;;;;25.00;5.50;;;;;;;20.06;46.05;101223.91;5007704;28;20070;-74
2022/11/07 10:44:01;;;;;;;193.48;15.10;;;;;;;19.97;45.61;101191.31;5007683;28;20050;-75
2022/11/07 10:46:46;;;;;;;543.50;38.13;;;;;;;19.97;45.55;101214.00;5009438;28;20030;-74
2022/11/07 10:49:23;;;;;;;130.75;11.73;;;;;;;19.74;45.66;101195.75;5007473;28;20065;-74
2022/11/07 10:51:49;;;;;;;283.52;18.77;;;;;;;19.74;45.58;101212.13;5007351;28;20469;-74
2022/11/07 10:54:25;;;;;;;51.03;7.25;;;;;;;19.61;45.98;101206.31;5007698;28;20038;-74
2022/11/07 10:57:02;;;;;;;101.68;10.95;;;;;;;19.60;46.42;101210.09;5007169;28;20088;-75
2022/11/07 10:59:29;;;;;;;91.35;8.57;;;;;;;19.44;46.40;101192.69;5007246;28;20044;-75
2022/11/07 11:01:57;;;;;;;116.82;12.77;;;;;;;19.68;46.59;101204.63;5006870;28;20042;-75
2022/11/07 11:04:25;;;;;;;39.88;6.95;;;;;;;19.83;46.01;101211.97;4990572;28;20037;-76
2022/11/07 11:07:03;;;;;;;118.10;10.60;;;;;;;19.84;46.05;101197.31;5006885;28;20037;-75
2022/11/07 11:09:31;;;;;;;58.88;7.47;;;;;;;20.00;45.52;101205.47;5006711;28;20050;-77
2022/11/07 11:11:57;;;;;;;42.92;5.78;;;;;;;19.97;44.60;101166.72;5007294;28;20042;-77
2022/11/07 11:14:23;;;;;;;16.10;4.13;;;;;;;20.12;44.35;101175.94;5006665;28;20612;-76
2022/11/07 11:16:53;;;;;;;67.28;9.43;;;;;;;20.35;44.23;101185.16;5067116;28;20445;-77
2022/11/07 11:19:51;;;;;;;43.10;7.20;;;;;;;20.48;43.83;101185.47;5069246;28;20028;-78
2022/11/07 11:22:20;;;;;;;58.03;5.90;;;;;;;20.63;43.67;101180.13;5068408;28;20079;-76
2022/11/07 11:24:58;;;;;;;37.28;7.03;;;;;;;20.63;42.80;101177.38;5069858;28;20035;-78
2022/11/07 11:27:26;;;;;;;1505.50;186.82;;;;;;;20.58;42.71;101177.91;5069526;28;20024;-77
2022/11/07 11:30:10;;;;;;;1202.32;138.75;;;;;;;20.55;43.42;101170.03;5028855;28;20043;-77